createdAt,value
2022-08-12T00:01:04.141Z,3.00
2022-08-12T00:02:24.580Z,3.40
2022-08-12T00:03:44.512Z,3.33
2022-08-12T00:05:07.441Z,3.00
2022-08-12T00:06:27.794Z,2.80
2022-08-12T00:07:48.303Z,3.00
2022-08-12T00:09:08.572Z,3.35
2022-08-12T00:10:28.592Z,2.60
2022-08-12T00:11:48.415Z,3.00
2022-08-12T00:13:08.502Z,2.67
2022-08-12T00:14:28.993Z,3.00
2022-08-12T00:15:50.127Z,2.47
2022-08-12T00:17:11.067Z,2.50
2022-08-12T00:18:30.901Z,3.13
2022-08-12T00:19:50.778Z,3.05
2022-08-12T00:21:11.055Z,2.17
2022-08-12T00:22:31.270Z,2.47
2022-08-12T00:23:51.707Z,2.53
2022-08-12T00:25:17.161Z,2.28
2022-08-12T00:26:37.542Z,2.45
2022-08-12T00:27:57.441Z,2.10
2022-08-12T00:29:17.548Z,2.03
2022-08-12T00:30:37.675Z,2.30
2022-08-12T00:31:58.574Z,2.58
2022-08-12T00:33:23.365Z,1.77
2022-08-12T00:34:48.529Z,2.13
2022-08-12T00:36:10.152Z,2.20
2022-08-12T00:37:39.538Z,2.20
2022-08-12T00:38:59.351Z,1.85
2022-08-12T00:40:19.758Z,2.10
2022-08-12T00:41:41.107Z,2.13
2022-08-12T00:42:42.973Z,1.75
2022-08-12T00:43:46.314Z,1.83
2022-08-12T00:44:48.173Z,1.90
2022-08-12T00:46:09.121Z,1.70
2022-08-12T00:47:24.038Z,1.90
2022-08-12T00:48:27.394Z,1.95
2022-08-12T00:49:29.687Z,1.80
2022-08-12T00:50:31.659Z,2.00
2022-08-12T00:51:51.809Z,1.80
2022-08-12T00:52:54.275Z,1.70
2022-08-12T00:53:55.601Z,1.75
2022-08-12T00:54:58.188Z,1.90
2022-08-12T00:56:00.463Z,1.92
2022-08-12T00:57:05.283Z,1.60
2022-08-12T00:58:07.797Z,1.67
2022-08-12T00:59:09.289Z,1.80
2022-08-12T01:00:12.716Z,2.03
2022-08-12T01:01:14.309Z,1.92
2022-08-12T01:02:22.779Z,1.88
2022-08-12T01:03:24.674Z,1.95
2022-08-12T01:04:46.296Z,1.80
2022-08-12T01:06:07.573Z,2.33
2022-08-12T01:07:28.319Z,1.75
2022-08-12T01:08:49.638Z,1.60
2022-08-12T01:10:09.849Z,1.70
2022-08-12T01:11:31.186Z,1.90
2022-08-12T01:12:33.190Z,1.75
2022-08-12T01:13:37.052Z,1.60
2022-08-12T01:14:39.251Z,1.85
2022-08-12T01:15:40.860Z,1.85
2022-08-12T01:16:42.250Z,1.83
2022-08-12T01:17:44.585Z,1.85
2022-08-12T01:18:45.990Z,2.10
2022-08-12T01:19:48.629Z,1.80
2022-08-12T01:20:56.574Z,1.70
2022-08-12T01:22:12.681Z,2.00
2022-08-12T01:23:14.006Z,1.92
2022-08-12T01:24:36.641Z,2.10
2022-08-12T01:25:55.653Z,2.00
2022-08-12T01:26:58.381Z,1.48
2022-08-12T01:28:01.844Z,1.90
2022-08-12T01:29:03.388Z,1.67
2022-08-12T01:30:06.581Z,1.80
2022-08-12T01:31:08.284Z,1.63
2022-08-12T01:32:11.210Z,2.00
2022-08-12T01:33:15.884Z,1.85
2022-08-12T01:34:36.550Z,1.63
2022-08-12T01:35:40.947Z,1.50
2022-08-12T01:36:44.344Z,1.92
2022-08-12T01:37:47.554Z,1.70
2022-08-12T01:38:49.702Z,1.50
2022-08-12T01:40:36.991Z,2.05
2022-08-12T01:41:16.466Z,1.90
2022-08-12T01:42:19.904Z,1.85
2022-08-12T01:43:22.404Z,1.80
2022-08-12T01:44:24.211Z,1.80
2022-08-12T01:45:29.500Z,1.92
2022-08-12T01:46:52.368Z,1.90
2022-08-12T01:48:13.022Z,1.90
2022-08-12T01:49:37.711Z,1.65
2022-08-12T01:51:01.275Z,2.00
2022-08-12T01:52:20.959Z,1.80
2022-08-12T01:53:25.979Z,1.60
2022-08-12T01:54:28.717Z,1.85
2022-08-12T01:55:35.136Z,1.77
2022-08-12T01:56:56.723Z,1.90
2022-08-12T01:58:18.069Z,1.73
2022-08-12T01:59:44.500Z,1.60
2022-08-12T02:00:55.258Z,1.90
2022-08-12T02:01:58.862Z,2.10
2022-08-12T02:03:11.995Z,2.00
2022-08-12T02:04:31.695Z,1.92
2022-08-12T02:05:58.090Z,1.80
2022-08-12T02:07:25.504Z,1.55
2022-08-12T02:08:52.345Z,1.80
2022-08-12T02:10:51.164Z,1.80
2022-08-12T02:11:42.570Z,1.65
2022-08-12T02:12:47.844Z,1.70
2022-08-12T02:14:10.953Z,1.90
2022-08-12T02:15:37.986Z,1.90
2022-08-12T02:16:42.083Z,1.83
2022-08-12T02:17:55.876Z,1.98
2022-08-12T02:19:23.172Z,1.70
2022-08-12T02:20:52.173Z,1.70
2022-08-12T02:22:06.053Z,1.75
2022-08-12T02:23:07.822Z,1.90
2022-08-12T02:24:12.082Z,1.98
2022-08-12T02:25:15.836Z,1.90
2022-08-12T02:26:18.240Z,1.85
2022-08-12T02:27:19.888Z,1.75
2022-08-12T02:28:21.574Z,1.77
2022-08-12T02:29:23.156Z,1.80
2022-08-12T02:30:25.665Z,1.65
2022-08-12T02:31:43.548Z,1.90
2022-08-12T02:32:46.066Z,1.88
2022-08-12T02:33:47.772Z,1.75
2022-08-12T02:34:49.727Z,2.00
2022-08-12T02:35:51.526Z,1.90
2022-08-12T02:36:55.903Z,1.98
2022-08-12T02:38:00.352Z,1.80
2022-08-12T02:39:02.958Z,1.83
2022-08-12T02:40:05.363Z,2.05
2022-08-12T02:41:11.910Z,2.00
2022-08-12T02:42:14.857Z,1.85
2022-08-12T02:43:18.933Z,1.83
2022-08-12T02:44:22.823Z,1.98
2022-08-12T02:45:33.448Z,1.98
2022-08-12T02:46:35.228Z,1.73
2022-08-12T02:47:58.399Z,1.73
2022-08-12T02:49:09.108Z,1.90
2022-08-12T02:50:14.605Z,1.80
2022-08-12T02:51:19.306Z,2.17
2022-08-12T02:52:21.611Z,1.70
2022-08-12T02:53:23.235Z,2.03
2022-08-12T02:54:24.977Z,1.75
2022-08-12T02:55:34.808Z,1.80
2022-08-12T02:56:40.538Z,1.85
2022-08-12T02:57:44.486Z,1.80
2022-08-12T02:58:46.502Z,1.95
2022-08-12T02:59:49.588Z,2.20
2022-08-12T03:00:51.529Z,2.03
2022-08-12T03:01:56.998Z,2.10
2022-08-12T03:03:00.690Z,1.90
2022-08-12T03:04:04.288Z,1.95
2022-08-12T03:05:05.998Z,1.60
2022-08-12T03:06:08.407Z,1.83
2022-08-12T03:07:14.395Z,1.95
2022-08-12T03:08:24.812Z,1.90
2022-08-12T03:10:03.491Z,2.05
2022-08-12T03:11:06.251Z,1.95
2022-08-12T03:12:17.439Z,1.75
2022-08-12T03:13:23.884Z,1.90
2022-08-12T03:14:27.726Z,1.92
2022-08-12T03:15:31.090Z,1.88
2022-08-12T03:16:33.341Z,1.80
2022-08-12T03:17:44.039Z,2.20
2022-08-12T03:18:46.181Z,1.70
2022-08-12T03:20:09.527Z,1.70
2022-08-12T03:21:13.430Z,1.80
2022-08-12T03:22:15.665Z,1.73
2022-08-12T03:23:28.625Z,1.60
2022-08-12T03:24:33.024Z,2.13
2022-08-12T03:25:37.705Z,1.80
2022-08-12T03:26:39.870Z,1.80
2022-08-12T03:27:51.556Z,2.03
2022-08-12T03:28:57.995Z,1.70
2022-08-12T03:29:59.501Z,1.98
2022-08-12T03:31:02.670Z,1.90
2022-08-12T03:32:04.794Z,2.10
2022-08-12T03:33:06.543Z,1.92
2022-08-12T03:34:10.086Z,2.00
2022-08-12T03:35:40.183Z,2.50
2022-08-12T03:36:39.401Z,2.00
2022-08-12T03:37:41.460Z,1.90
2022-08-12T03:38:44.202Z,1.92
2022-08-12T03:39:45.827Z,1.90
2022-08-12T03:41:15.549Z,1.95
2022-08-12T03:42:35.554Z,1.88
2022-08-12T03:43:59.996Z,2.42
2022-08-12T03:45:32.202Z,1.88
2022-08-12T03:46:55.097Z,2.10
2022-08-12T03:48:19.193Z,1.80
2022-08-12T03:49:39.282Z,1.80
2022-08-12T03:50:59.687Z,1.65
2022-08-12T03:52:19.574Z,1.98
2022-08-12T03:53:47.238Z,1.70
2022-08-12T03:55:07.039Z,2.40
2022-08-12T03:56:26.797Z,1.77
2022-08-12T03:57:48.597Z,2.20
2022-08-12T03:59:11.030Z,2.05
2022-08-12T04:00:24.787Z,2.00
2022-08-12T04:01:26.542Z,1.80
2022-08-12T04:02:28.381Z,1.80
2022-08-12T04:03:49.128Z,1.85
2022-08-12T04:04:50.576Z,2.00
2022-08-12T04:05:55.441Z,2.00
2022-08-12T04:06:58.046Z,1.70
2022-08-12T04:08:00.254Z,1.83
2022-08-12T04:09:01.981Z,2.03
2022-08-12T04:10:04.072Z,2.00
2022-08-12T04:11:25.495Z,1.95
2022-08-12T04:12:46.947Z,2.00
2022-08-12T04:13:48.773Z,1.95
2022-08-12T04:14:51.716Z,1.70
2022-08-12T04:15:53.126Z,1.60
2022-08-12T04:16:56.134Z,1.90
2022-08-12T04:18:06.800Z,1.60
2022-08-12T04:19:09.467Z,1.65
2022-08-12T04:20:13.474Z,2.00
2022-08-12T04:21:14.863Z,1.85
2022-08-12T04:22:16.270Z,2.30
2022-08-12T04:23:17.699Z,1.95
2022-08-12T04:24:19.883Z,1.80
2022-08-12T04:25:23.365Z,2.00
2022-08-12T04:26:24.872Z,1.90
2022-08-12T04:27:26.300Z,1.75
2022-08-12T04:28:27.966Z,2.00
2022-08-12T04:30:32.913Z,1.83
2022-08-12T04:30:50.694Z,2.10
2022-08-12T04:31:52.267Z,2.03
2022-08-12T04:32:54.156Z,1.88
2022-08-12T04:33:57.566Z,1.77
2022-08-12T04:34:59.028Z,2.08
2022-08-12T04:36:00.490Z,1.90
2022-08-12T04:37:01.846Z,2.25
2022-08-12T04:38:03.270Z,2.13
2022-08-12T04:39:05.588Z,1.90
2022-08-12T04:40:11.167Z,1.90
2022-08-12T04:41:12.817Z,1.95
2022-08-12T04:42:14.289Z,1.95
2022-08-12T04:44:00.772Z,1.70
2022-08-12T04:44:37.893Z,2.20
2022-08-12T04:45:40.244Z,2.38
2022-08-12T04:46:42.184Z,1.90
2022-08-12T04:47:43.750Z,2.08
2022-08-12T04:48:47.042Z,2.15
2022-08-12T04:49:50.899Z,2.13
2022-08-12T04:50:52.281Z,2.28
2022-08-12T04:51:57.666Z,2.50
2022-08-12T04:53:00.878Z,2.55
2022-08-12T04:54:04.567Z,2.20
2022-08-12T04:55:06.470Z,2.60
2022-08-12T04:56:08.042Z,2.30
2022-08-12T04:57:09.845Z,2.35
2022-08-12T04:58:12.211Z,2.17
2022-08-12T04:59:16.204Z,2.40
2022-08-12T05:00:17.898Z,2.30
2022-08-12T05:01:20.059Z,2.78
2022-08-12T05:02:22.869Z,2.65
2022-08-12T05:03:25.635Z,2.65
2022-08-12T05:04:27.220Z,2.55
2022-08-12T05:05:35.169Z,2.22
2022-08-12T05:06:37.401Z,2.33
2022-08-12T05:07:45.736Z,3.20
2022-08-12T05:08:56.484Z,2.78
2022-08-12T05:10:00.481Z,2.22
2022-08-12T05:11:06.144Z,2.40
2022-08-12T05:12:07.835Z,2.20
2022-08-12T05:13:11.357Z,2.45
2022-08-12T05:14:13.169Z,1.98
2022-08-12T05:15:27.592Z,2.38
2022-08-12T05:16:33.068Z,2.58
2022-08-12T05:17:35.718Z,2.40
2022-08-12T05:18:39.205Z,2.28
2022-08-12T05:19:41.035Z,2.08
2022-08-12T05:20:45.201Z,2.35
2022-08-12T05:21:46.802Z,2.53
2022-08-12T05:22:57.411Z,2.58
2022-08-12T05:24:00.274Z,2.65
2022-08-12T05:25:01.817Z,2.40
2022-08-12T05:26:06.027Z,2.50
2022-08-12T05:27:07.390Z,2.47
2022-08-12T05:28:09.151Z,2.67
2022-08-12T05:30:06.534Z,2.53
2022-08-12T05:30:34.445Z,2.70
2022-08-12T05:31:40.507Z,2.50
2022-08-12T05:32:49.282Z,2.40
2022-08-12T05:33:50.670Z,2.13
2022-08-12T05:34:53.589Z,2.28
2022-08-12T05:35:55.010Z,2.50
2022-08-12T05:36:56.567Z,2.50
2022-08-12T05:38:16.615Z,2.78
2022-08-12T05:39:18.015Z,3.00
2022-08-12T05:40:19.432Z,2.60
2022-08-12T05:41:20.943Z,2.63
2022-08-12T05:42:34.311Z,2.50
2022-08-12T05:43:36.207Z,2.40
2022-08-12T05:44:37.593Z,2.53
2022-08-12T05:45:42.950Z,2.78
2022-08-12T05:46:46.201Z,2.60
2022-08-12T05:47:53.272Z,2.17
2022-08-12T05:48:55.620Z,2.10
2022-08-12T05:49:59.345Z,1.95
2022-08-12T05:51:00.703Z,2.20
2022-08-12T05:52:02.762Z,2.00
2022-08-12T05:53:04.921Z,1.80
2022-08-12T05:54:06.379Z,2.38
2022-08-12T05:55:08.190Z,2.20
2022-08-12T05:56:22.030Z,2.08
2022-08-12T05:57:23.649Z,2.40
2022-08-12T05:58:25.022Z,3.33
2022-08-12T05:59:26.388Z,2.10
2022-08-12T06:00:29.339Z,2.00
2022-08-12T06:02:11.662Z,1.80
2022-08-12T06:03:01.116Z,1.80
2022-08-12T06:04:02.857Z,1.75
2022-08-12T06:05:10.445Z,2.00
2022-08-12T06:06:12.000Z,1.95
2022-08-12T06:07:48.731Z,1.67
2022-08-12T06:08:35.715Z,1.88
2022-08-12T06:09:37.138Z,1.52
2022-08-12T06:10:38.577Z,1.65
2022-08-12T06:11:53.628Z,1.60
2022-08-12T06:13:03.849Z,1.90
2022-08-12T06:14:11.879Z,1.80
2022-08-12T06:15:16.479Z,1.80
2022-08-12T06:16:21.258Z,2.00
2022-08-12T06:17:22.991Z,1.88
2022-08-12T06:18:29.201Z,1.67
2022-08-12T06:20:28.139Z,1.80
2022-08-12T06:21:01.910Z,2.08
2022-08-12T06:22:03.644Z,1.98
2022-08-12T06:23:05.277Z,2.15
2022-08-12T06:24:08.470Z,1.58
2022-08-12T06:25:10.531Z,1.70
2022-08-12T06:26:20.687Z,1.83
2022-08-12T06:27:22.039Z,1.80
2022-08-12T06:28:23.667Z,1.80
2022-08-12T06:30:10.071Z,1.88
2022-08-12T06:31:08.211Z,1.73
2022-08-12T06:32:08.662Z,1.70
2022-08-12T06:33:22.874Z,2.03
2022-08-12T06:35:23.824Z,1.73
2022-08-12T06:35:58.831Z,1.80
2022-08-12T06:37:00.515Z,1.85
2022-08-12T06:38:03.632Z,1.63
2022-08-12T06:39:04.990Z,1.83
2022-08-12T06:40:16.679Z,2.10
2022-08-12T06:41:36.691Z,1.60
2022-08-12T06:42:54.227Z,1.63
2022-08-12T06:44:05.505Z,1.52
2022-08-12T06:45:12.297Z,1.73
2022-08-12T06:46:14.087Z,1.80
2022-08-12T06:47:19.403Z,1.95
2022-08-12T06:48:20.878Z,1.75
2022-08-12T06:49:22.408Z,1.40
2022-08-12T06:50:23.796Z,1.52
2022-08-12T06:51:26.685Z,1.70
2022-08-12T06:52:28.460Z,1.60
2022-08-12T06:53:32.798Z,1.70
2022-08-12T06:54:35.345Z,1.83
2022-08-12T06:55:36.978Z,1.80
2022-08-12T06:58:09.874Z,1.70
2022-08-12T06:59:14.590Z,2.10
2022-08-12T07:00:19.669Z,1.42
2022-08-12T07:01:21.342Z,2.20
2022-08-12T07:02:22.871Z,1.60
2022-08-12T07:03:28.714Z,1.73
2022-08-12T07:04:38.776Z,1.70
2022-08-12T07:05:42.213Z,1.77
2022-08-12T07:06:48.935Z,2.08
2022-08-12T07:07:53.089Z,1.83
2022-08-12T07:08:54.486Z,2.30
2022-08-12T07:10:05.058Z,1.92
2022-08-12T07:11:09.988Z,1.65
2022-08-12T07:12:16.731Z,2.33
2022-08-12T07:13:18.087Z,1.73
2022-08-12T07:14:19.554Z,1.38
2022-08-12T07:15:25.135Z,1.70
2022-08-12T07:16:46.513Z,1.38
2022-08-12T07:17:47.874Z,1.77
2022-08-12T07:18:53.592Z,1.80
2022-08-12T07:19:57.965Z,1.60
2022-08-12T07:21:03.931Z,1.70
2022-08-12T07:22:06.471Z,2.08
2022-08-12T07:23:08.049Z,1.73
2022-08-12T07:24:09.393Z,1.80
2022-08-12T07:25:29.331Z,1.55
2022-08-12T07:26:30.730Z,1.80
2022-08-12T07:27:37.272Z,1.90
2022-08-12T07:28:41.322Z,1.90
2022-08-12T07:30:00.036Z,1.83
2022-08-12T07:31:04.996Z,1.70
2022-08-12T07:32:06.507Z,1.80
2022-08-12T07:33:09.033Z,1.70
2022-08-12T07:34:10.404Z,1.60
2022-08-12T07:35:12.579Z,1.50
2022-08-12T07:36:14.581Z,1.70
2022-08-12T07:37:17.631Z,1.65
2022-08-12T07:38:29.314Z,1.42
2022-08-12T07:39:31.388Z,1.70
2022-08-12T07:40:32.765Z,1.70
2022-08-12T07:41:34.243Z,1.85
2022-08-12T07:42:35.666Z,1.85
2022-08-12T07:43:39.359Z,1.77
2022-08-12T07:44:40.779Z,1.70
2022-08-12T07:45:42.245Z,1.73
2022-08-12T07:46:44.172Z,1.70
2022-08-12T07:47:46.244Z,1.63
2022-08-12T07:48:48.991Z,2.00
2022-08-12T07:50:03.573Z,1.80
2022-08-12T07:51:07.601Z,1.63
2022-08-12T07:52:09.008Z,1.80
2022-08-12T07:53:10.458Z,1.40
2022-08-12T07:54:12.892Z,1.67
2022-08-12T07:55:15.174Z,1.52
2022-08-12T07:56:18.124Z,1.70
2022-08-12T07:57:19.666Z,1.60
2022-08-12T07:58:25.439Z,1.67
2022-08-12T07:59:26.843Z,1.80
2022-08-12T08:00:30.369Z,1.73
2022-08-12T08:01:32.904Z,1.63
2022-08-12T08:02:35.711Z,1.63
2022-08-12T08:03:49.070Z,1.63
2022-08-12T08:04:56.652Z,1.67
2022-08-12T08:05:58.354Z,1.70
2022-08-12T08:07:00.562Z,1.80
2022-08-12T08:08:02.329Z,1.80
2022-08-12T08:09:04.837Z,1.88
2022-08-12T08:10:10.779Z,2.05
2022-08-12T08:11:30.643Z,1.60
2022-08-12T08:12:51.144Z,1.80
2022-08-12T08:13:52.767Z,1.98
2022-08-12T08:14:55.916Z,1.90
2022-08-12T08:16:04.517Z,1.50
2022-08-12T08:17:06.860Z,1.58
2022-08-12T08:18:09.548Z,1.55
2022-08-12T08:19:19.171Z,2.00
2022-08-12T08:20:23.442Z,1.80
2022-08-12T08:21:27.137Z,1.77
2022-08-12T08:22:40.734Z,1.58
2022-08-12T08:24:05.213Z,2.00
2022-08-12T08:25:20.170Z,1.80
2022-08-12T08:26:28.851Z,1.90
2022-08-12T08:27:45.437Z,1.58
2022-08-12T08:28:46.876Z,1.63
2022-08-12T08:29:48.663Z,1.70
2022-08-12T08:30:50.579Z,1.88
2022-08-12T08:31:57.861Z,1.70
2022-08-12T08:32:59.343Z,1.80
2022-08-12T08:34:33.667Z,1.88
2022-08-12T08:35:23.534Z,1.70
2022-08-12T08:36:28.427Z,1.55
2022-08-12T08:37:33.477Z,1.60
2022-08-12T08:38:53.308Z,1.70
2022-08-12T08:40:20.053Z,1.63
2022-08-12T08:42:15.207Z,1.70
2022-08-12T08:43:01.535Z,1.45
2022-08-12T08:44:03.115Z,1.70
2022-08-12T08:45:12.811Z,2.30
2022-08-12T08:46:14.435Z,1.85
2022-08-12T08:47:15.814Z,1.70
2022-08-12T08:48:17.839Z,2.03
2022-08-12T08:49:19.277Z,2.00
2022-08-12T08:50:20.768Z,1.65
2022-08-12T08:51:26.006Z,1.50
2022-08-12T08:52:39.399Z,1.58
2022-08-12T08:53:42.181Z,1.67
2022-08-12T08:54:53.503Z,1.98
2022-08-12T08:56:05.018Z,1.83
2022-08-12T08:57:10.204Z,1.63
2022-08-12T08:58:11.688Z,1.92
2022-08-12T08:59:13.620Z,1.60
2022-08-12T09:00:16.386Z,1.55
2022-08-12T09:01:20.846Z,2.20
2022-08-12T09:02:22.320Z,2.03
2022-08-12T09:05:10.123Z,1.70
2022-08-12T09:05:14.633Z,1.17
2022-08-12T09:06:07.800Z,1.50
2022-08-12T09:07:17.682Z,1.42
2022-08-12T09:08:30.814Z,1.38
2022-08-12T09:11:00.047Z,1.33
2022-08-12T09:12:27.284Z,1.40
2022-08-12T09:14:51.253Z,1.55
2022-08-12T09:15:57.518Z,1.92
2022-08-12T09:17:00.890Z,1.20
2022-08-12T09:18:08.551Z,1.50
2022-08-12T09:19:27.523Z,1.73
2022-08-12T09:20:30.576Z,1.48
2022-08-12T09:21:54.714Z,1.55
2022-08-12T09:22:55.034Z,1.50
2022-08-12T09:24:06.284Z,1.30
2022-08-12T09:25:09.431Z,1.50
2022-08-12T09:26:30.718Z,1.30
2022-08-12T09:28:03.780Z,1.50
2022-08-12T09:28:54.469Z,1.52
2022-08-12T09:30:12.515Z,1.63
2022-08-12T09:32:06.462Z,1.30
2022-08-12T09:33:04.948Z,1.25
2022-08-12T09:34:28.216Z,1.40
2022-08-12T09:35:28.635Z,1.42
2022-08-12T09:36:48.828Z,1.52
2022-08-12T09:37:59.087Z,1.50
2022-08-12T09:39:02.492Z,1.40
2022-08-12T09:41:01.280Z,1.33
2022-08-12T09:42:32.657Z,1.80
2022-08-12T09:43:46.871Z,1.50
2022-08-12T09:45:19.481Z,1.85
2022-08-12T09:46:25.726Z,1.50
2022-08-12T09:47:29.601Z,1.45
2022-08-12T09:48:36.062Z,1.40
2022-08-12T09:49:42.192Z,1.33
2022-08-12T09:50:50.600Z,1.25
2022-08-12T09:51:55.444Z,1.30
2022-08-12T09:53:16.518Z,1.25
2022-08-12T09:54:33.151Z,1.50
2022-08-12T09:56:07.289Z,1.45
2022-08-12T09:57:03.814Z,1.50
2022-08-12T09:58:58.113Z,1.48
2022-08-12T10:00:16.974Z,1.42
2022-08-12T10:01:14.667Z,1.50
2022-08-12T10:02:44.469Z,1.65
2022-08-12T10:04:03.054Z,1.40
2022-08-12T10:05:00.458Z,1.38
2022-08-12T10:06:27.238Z,1.60
2022-08-12T10:07:39.543Z,1.30
2022-08-12T10:08:42.107Z,2.00
2022-08-12T10:09:58.807Z,1.38
2022-08-12T10:11:20.807Z,1.40
2022-08-12T10:12:41.055Z,1.52
2022-08-12T10:13:45.076Z,1.70
2022-08-12T10:14:49.964Z,1.50
2022-08-12T10:16:02.002Z,1.60
2022-08-12T10:17:09.002Z,1.50
2022-08-12T10:18:13.697Z,1.60
2022-08-12T10:19:17.670Z,1.20
2022-08-12T10:20:19.241Z,1.38
2022-08-12T10:21:36.234Z,1.33
2022-08-12T10:22:41.207Z,1.40
2022-08-12T10:23:46.096Z,1.40
2022-08-12T10:25:17.336Z,1.23
2022-08-12T10:26:39.509Z,1.50
2022-08-12T10:28:04.584Z,1.42
2022-08-12T10:30:02.902Z,1.48
2022-08-12T10:30:58.343Z,1.15
2022-08-12T10:32:20.843Z,1.17
2022-08-12T10:33:31.662Z,1.30
2022-08-12T10:34:33.817Z,1.35
2022-08-12T10:35:37.858Z,1.40
2022-08-12T10:36:42.742Z,1.30
2022-08-12T10:38:34.637Z,1.30
2022-08-12T10:40:01.000Z,1.40
2022-08-12T10:40:32.981Z,1.58
2022-08-12T10:41:57.840Z,1.45
2022-08-12T10:43:20.045Z,1.35
2022-08-12T10:44:22.272Z,1.40
2022-08-12T10:45:25.720Z,1.35
2022-08-12T10:46:33.069Z,1.63
2022-08-12T10:48:07.447Z,1.45
2022-08-12T10:49:05.674Z,1.60
2022-08-12T10:50:35.727Z,1.40
2022-08-12T10:52:04.804Z,1.52
2022-08-12T10:53:09.039Z,1.25
2022-08-12T10:54:13.557Z,1.42
2022-08-12T10:55:15.567Z,1.58
2022-08-12T10:56:18.467Z,1.45
2022-08-12T10:58:13.145Z,1.30
2022-08-12T10:58:46.320Z,1.55
2022-08-12T11:00:29.573Z,1.20
2022-08-12T11:01:48.889Z,1.52
2022-08-12T11:04:22.642Z,1.35
2022-08-12T11:04:25.806Z,1.58
2022-08-12T11:07:02.522Z,1.50
2022-08-12T11:07:07.998Z,1.60
2022-08-12T11:08:36.554Z,1.30
2022-08-12T11:09:51.278Z,1.50
2022-08-12T11:10:48.830Z,1.73
2022-08-12T11:12:36.915Z,1.42
2022-08-12T11:13:13.116Z,1.50
2022-08-12T11:14:50.057Z,1.40
2022-08-12T11:16:19.477Z,1.50
2022-08-12T11:17:43.623Z,1.70
2022-08-12T11:18:25.747Z,1.85
2022-08-12T11:19:30.750Z,1.13
2022-08-12T11:20:34.521Z,1.33
2022-08-12T11:21:57.216Z,1.42
2022-08-12T11:23:03.530Z,1.30
2022-08-12T11:24:05.873Z,1.30
2022-08-12T11:25:10.376Z,1.40
2022-08-12T11:26:12.778Z,1.27
2022-08-12T11:27:14.114Z,1.40
2022-08-12T11:28:16.543Z,1.40
2022-08-12T11:29:22.827Z,1.40
2022-08-12T11:30:32.833Z,1.35
2022-08-12T11:31:55.811Z,1.50
2022-08-12T11:32:55.638Z,1.50
2022-08-12T11:34:04.730Z,1.60
2022-08-12T11:35:15.953Z,1.40
2022-08-12T11:36:22.035Z,1.42
2022-08-12T11:37:25.815Z,1.50
2022-08-12T11:38:27.627Z,1.27
2022-08-12T11:40:02.862Z,1.55
2022-08-12T11:40:50.466Z,1.25
2022-08-12T11:41:51.809Z,1.35
2022-08-12T11:42:53.216Z,1.35
2022-08-12T11:43:58.501Z,1.42
2022-08-12T11:45:00.614Z,1.20
2022-08-12T11:46:02.513Z,1.30
2022-08-12T11:47:03.954Z,1.40
2022-08-12T11:48:10.916Z,1.20
2022-08-12T11:49:30.466Z,1.33
2022-08-12T11:50:34.171Z,1.30
2022-08-12T11:51:43.380Z,1.40
2022-08-12T11:52:59.205Z,1.30
2022-08-12T11:54:01.512Z,1.27
2022-08-12T11:55:03.241Z,1.25
2022-08-12T11:56:05.347Z,1.45
2022-08-12T11:58:13.623Z,1.40
2022-08-12T11:59:28.617Z,1.30
2022-08-12T12:02:03.159Z,1.15
2022-08-12T12:02:35.173Z,1.15
2022-08-12T12:03:45.731Z,1.35
2022-08-12T12:04:52.188Z,0.90
2022-08-12T12:05:53.848Z,1.17
2022-08-12T12:07:07.469Z,1.17
2022-08-12T12:08:41.747Z,1.10
2022-08-12T12:09:53.000Z,1.05
2022-08-12T12:10:55.220Z,1.20
2022-08-12T12:12:01.063Z,1.25
2022-08-12T12:13:03.170Z,1.40
2022-08-12T12:14:08.482Z,1.20
2022-08-12T12:15:13.488Z,1.50
2022-08-12T12:16:14.995Z,1.58
2022-08-12T12:17:16.545Z,1.23
2022-08-12T12:18:22.484Z,1.23
2022-08-12T12:19:45.300Z,1.10
2022-08-12T12:20:48.341Z,1.20
2022-08-12T12:21:49.780Z,1.08
2022-08-12T12:22:51.251Z,1.25
2022-08-12T12:23:53.550Z,1.42
2022-08-12T12:25:12.660Z,1.30
2022-08-12T12:26:35.382Z,1.40
2022-08-12T12:28:05.252Z,1.50
2022-08-12T12:30:04.051Z,1.50
2022-08-12T12:30:29.979Z,1.27
2022-08-12T12:32:09.895Z,1.30
2022-08-12T12:32:54.705Z,1.40
2022-08-12T12:33:57.756Z,1.30
2022-08-12T12:35:13.872Z,1.10
2022-08-12T12:36:29.299Z,1.38
2022-08-12T12:38:03.540Z,1.05
2022-08-12T12:38:53.113Z,1.33
2022-08-12T12:39:57.217Z,1.30
2022-08-12T12:40:59.816Z,1.40
2022-08-12T12:42:43.792Z,1.30
2022-08-12T12:43:43.596Z,1.40
2022-08-12T12:44:53.714Z,1.20
2022-08-12T12:45:55.270Z,1.20
2022-08-12T12:46:56.608Z,1.40
2022-08-12T12:48:01.062Z,1.30
2022-08-12T12:49:02.418Z,1.27
2022-08-12T12:50:12.484Z,1.15
2022-08-12T12:51:55.122Z,1.30
2022-08-12T12:52:55.169Z,1.30
2022-08-12T12:54:08.627Z,1.23
2022-08-12T12:55:11.027Z,1.45
2022-08-12T12:56:15.991Z,1.40
2022-08-12T12:57:17.325Z,1.02
2022-08-12T12:58:37.443Z,1.60
2022-08-12T12:59:59.764Z,1.40
2022-08-12T13:01:04.885Z,1.63
2022-08-12T13:02:31.651Z,1.20
2022-08-12T13:03:49.122Z,1.02
2022-08-12T13:04:51.052Z,1.00
2022-08-12T13:06:07.225Z,1.30
2022-08-12T13:07:18.485Z,1.27
2022-08-12T13:08:35.703Z,1.20
2022-08-12T13:09:46.666Z,1.40
2022-08-12T13:10:53.038Z,1.30
2022-08-12T13:12:02.402Z,1.25
2022-08-12T13:14:07.707Z,1.23
2022-08-12T13:14:35.131Z,1.40
2022-08-12T13:15:43.055Z,1.60
2022-08-12T13:16:49.859Z,1.55
2022-08-12T13:18:02.530Z,1.40
2022-08-12T13:19:10.782Z,1.35
2022-08-12T13:20:38.257Z,1.30
2022-08-12T13:22:08.119Z,1.55
2022-08-12T13:23:36.900Z,1.33
2022-08-12T13:24:44.614Z,1.30
2022-08-12T13:25:46.966Z,1.35
2022-08-12T13:26:57.002Z,1.45
2022-08-12T13:27:59.905Z,1.40
2022-08-12T13:29:03.454Z,1.15
2022-08-12T13:30:12.952Z,1.40
2022-08-12T13:31:18.291Z,1.17
2022-08-12T13:32:31.289Z,1.30
2022-08-12T13:34:28.189Z,1.20
2022-08-12T13:35:04.625Z,1.30
2022-08-12T13:36:27.202Z,1.30
2022-08-12T13:37:43.928Z,1.17
2022-08-12T13:39:02.511Z,1.65
2022-08-12T13:40:16.597Z,1.40
2022-08-12T13:41:41.680Z,1.50
2022-08-12T13:43:05.556Z,1.27
2022-08-12T13:44:12.837Z,1.40
2022-08-12T13:45:19.471Z,1.48
2022-08-12T13:46:25.658Z,1.40
2022-08-12T13:47:34.294Z,1.15
2022-08-12T13:48:45.717Z,1.23
2022-08-12T13:49:55.035Z,1.00
2022-08-12T13:51:08.139Z,1.05
2022-08-12T13:52:15.165Z,1.00
2022-08-12T13:53:23.707Z,1.10
2022-08-12T13:54:30.200Z,1.52
2022-08-12T13:55:36.881Z,1.20
2022-08-12T13:56:49.911Z,1.17
2022-08-12T13:57:59.862Z,1.40
2022-08-12T13:59:08.999Z,1.23
2022-08-12T14:00:15.519Z,1.00
2022-08-12T14:01:23.163Z,1.20
2022-08-12T14:02:25.777Z,1.13
2022-08-12T14:03:50.276Z,1.27
2022-08-12T14:04:58.464Z,1.00
2022-08-12T14:06:09.802Z,1.20
2022-08-12T14:07:28.204Z,0.90
2022-08-12T14:08:45.547Z,1.23
2022-08-12T14:10:20.184Z,1.20
2022-08-12T14:11:28.099Z,1.15
2022-08-12T14:12:38.248Z,1.00
2022-08-12T14:14:03.743Z,1.10
2022-08-12T14:15:18.000Z,1.10
2022-08-12T14:16:48.358Z,1.20
2022-08-12T14:17:52.587Z,1.08
2022-08-12T14:18:58.332Z,1.10
2022-08-12T14:20:15.844Z,1.00
2022-08-12T14:21:22.459Z,0.98
2022-08-12T14:22:26.083Z,1.13
2022-08-12T14:24:04.409Z,1.00
2022-08-12T14:25:07.558Z,1.00
2022-08-12T14:26:20.007Z,1.08
2022-08-12T14:28:04.185Z,0.80
2022-08-12T14:28:57.562Z,1.17
2022-08-12T14:30:15.501Z,1.10
2022-08-12T14:31:31.511Z,1.10
2022-08-12T14:32:39.032Z,1.60
2022-08-12T14:33:58.565Z,1.30
2022-08-12T14:35:00.860Z,1.08
2022-08-12T14:36:10.665Z,1.05
2022-08-12T14:37:56.444Z,1.27
2022-08-12T14:38:46.414Z,0.82
2022-08-12T14:39:51.340Z,1.17
2022-08-12T14:40:58.580Z,1.10
2022-08-12T14:42:01.185Z,1.17
2022-08-12T14:43:06.634Z,1.02
2022-08-12T14:44:57.970Z,1.30
2022-08-12T14:45:44.947Z,0.90
2022-08-12T14:46:59.327Z,0.95
2022-08-12T14:48:05.859Z,0.95
2022-08-12T14:50:33.718Z,1.05
2022-08-12T14:51:03.156Z,1.00
2022-08-12T14:53:09.485Z,1.10
2022-08-12T14:57:56.881Z,1.05
2022-08-12T14:59:56.371Z,1.10
2022-08-12T15:01:21.327Z,0.90
2022-08-12T15:02:31.130Z,0.85
2022-08-12T15:03:53.988Z,1.00
2022-08-12T15:05:06.218Z,0.80
2022-08-12T15:06:43.675Z,0.90
2022-08-12T15:07:49.549Z,1.10
2022-08-12T15:09:03.103Z,1.10
2022-08-12T15:10:09.431Z,0.95
2022-08-12T15:11:14.473Z,1.00
2022-08-12T15:12:17.422Z,1.00
2022-08-12T15:13:32.259Z,1.10
2022-08-12T15:14:37.864Z,1.27
2022-08-12T15:15:44.126Z,1.00
2022-08-12T15:16:48.541Z,1.10
2022-08-12T15:17:59.483Z,1.05
2022-08-12T15:19:12.654Z,1.20
2022-08-12T15:20:32.793Z,0.90
2022-08-12T15:22:37.407Z,0.98
2022-08-12T15:23:02.319Z,0.80
2022-08-12T15:24:04.337Z,1.00
2022-08-12T15:25:08.921Z,1.00
2022-08-12T15:26:11.577Z,1.20
2022-08-12T15:27:31.746Z,1.00
2022-08-12T15:28:54.205Z,1.10
2022-08-12T15:29:55.752Z,1.00
2022-08-12T15:31:00.762Z,1.00
2022-08-12T15:32:07.699Z,1.27
2022-08-12T15:33:20.933Z,1.45
2022-08-12T15:34:22.854Z,0.88
2022-08-12T15:35:38.075Z,0.98
2022-08-12T15:36:54.596Z,1.02
2022-08-12T15:38:08.620Z,1.00
2022-08-12T15:39:16.674Z,1.05
2022-08-12T15:40:29.987Z,1.08